Aérodrome :
LOGIN :

S'inscrire | Disclaimer

   EN    FR    IT 

 










Légende :    VFR   VFR Marginal   IFR   IFR Intensif   IFR Très Intensif
Visi : 
Plafond : 
>= 8 km
>= 3000ft
5 à 8 km
1000 à 3000 ft
1500m à 5 km
500 à 1000 ft
800 à 1500m
200 à 500 ft
< 800m
< 200 ft
Symboles :   Orages  Brouillard  Fortes neiges  Fortes précipitations  Vent > 20 kt
SIGMETs :   Divers  Orages  Givrage  Turbulence  Onde Orograph.  Cendres Volcan.







- Altitude de l'aérodrome : 33 ft
- Code IATA : MHZ


EGUN - RAF Mildenhall

DERNIER METAR :
  • 270358Z AUTO 12008KT 9999 CLR 15/15 A2990 RMK AO2 SLP128 T01470147 $

METARs EXPIRÉS :
  • 270258Z AUTO 12008KT 9999 CLR 15/15 A2990 RMK AO2 SLP128 T01510151 58015 $
  • 270158Z AUTO 11007KT 9999 CLR 14/14 A2992 RMK AO2 SLP135 T01440144 .

TAF TAF EGUN
Valide du 27 à 04h jusqu'au 28 à 10h UTC


270408Z 2704/2810 13012KT 9999 FEW030 QNH2986INS
BECMG 2708/2709 17015G25KT 8000 -SHRA SCT050 QNH2982INS
TEMPO 2709/2715 18015G25KT 6000 -TSRA BKN030CB
BECMG 2717/2718 23012KT 9999 NSW SCT030 QNH2991INS
TEMPO 2805/2810 BKN020 TX27/2712Z TN14/2704Z
Pas de NOTAMs connus pour ce terrain.
2 SIGMETs publiés pour la FIR London (EGTT) :
 
Orages fréquents
EGTT SIGMET 05 VALID 270300/270600 EGRR
EGTT LONDON FIR FRQ TS FCST WI N5102 W00126 - N5005 W00106 - N5004 W00136 - N5047 W00207 - N5119 W00317 - N5139 W00245 - N5102 W00126 TOP FL350 MOV NNE 20KT WKN=
Orages fréquents
EGTT SIGMET 04 VALID 270200/270600 EGRR
EGTT LONDON FIR FRQ TS OBS WI N5102 W00514 - N5115 W00334 - N5058 W00324 - N5038 W00449 - N5102 W00514 TOP FL380 MOV N 30KT WKN=



MET'MAP, la Météo Aéronautique d'un coup d'oeil ! - Copyright ORBIFLY Décembre 2007 - Disclaimer

ORBIFLY MET'MAP TEAM :

Programmation & Développement : Alexandra Zaïnal
Conception & Développement : Baudouin d'Aumeries
Co-Programmation & Développement : Marc-Olivier Méhu
Soutien technique & logistique : Manuel Goepfert

Contact : metmap@orbifly.com




SOURCES & CREDITS :

   NOAA